Time;durP1;ratioP1;P1;durP2;ratioP2;P2;SDS_P1;SDS_P2;PMS_P1;PMS_P2;Temp;Humidity;BMP_temperature;BMP_pressure;BME280_temperature;BME280_humidity;BME280_pressure;Samples;Min_cycle;Max_cycle;Signal;HPM_P1;HPM_P2
2023/12/29 00:01:59;;;;;;;7.80;2.60;;;8.80;99.90;;;;;;5085948;28;20438;-81
2023/12/29 00:04:25;;;;;;;6.65;2.25;;;8.80;99.90;;;;;;5084176;28;20027;-79
2023/12/29 00:06:50;;;;;;;9.10;2.67;;;8.80;99.90;;;;;;5096349;28;20045;-80
2023/12/29 00:09:22;;;;;;;3.85;1.88;;;8.90;99.90;;;;;;5102493;28;20031;-78
2023/12/29 00:11:49;;;;;;;5.82;2.20;;;8.90;99.90;;;;;;5087305;28;20110;-80
2023/12/29 00:14:15;;;;;;;5.32;2.33;;;8.90;99.90;;;;;;5084109;28;20032;-79
2023/12/29 00:16:41;;;;;;;4.40;2.08;;;8.90;99.90;;;;;;5090213;28;20107;-78
2023/12/29 00:19:07;;;;;;;4.03;2.05;;;8.90;99.90;;;;;;5093668;28;20107;-83
2023/12/29 00:21:32;;;;;;;8.75;2.20;;;8.90;99.90;;;;;;5079451;28;20024;-77
2023/12/29 00:23:58;;;;;;;9.18;2.35;;;8.90;99.90;;;;;;5090264;28;20098;-79
2023/12/29 00:26:24;;;;;;;5.78;2.03;;;8.80;99.90;;;;;;5093500;28;20036;-82
2023/12/29 00:28:50;;;;;;;6.35;2.05;;;8.90;99.90;;;;;;5090840;28;20076;-83
2023/12/29 00:31:16;;;;;;;8.52;2.05;;;8.90;99.90;;;;;;5094411;28;20409;-80
2023/12/29 00:33:43;;;;;;;4.55;2.22;;;8.90;99.90;;;;;;5087971;28;20050;-86
2023/12/29 00:36:13;;;;;;;6.57;2.35;;;8.90;99.90;;;;;;5087106;28;20028;-84
2023/12/29 00:38:42;;;;;;;5.82;2.20;;;8.90;99.90;;;;;;5098216;28;20019;-84
2023/12/29 00:41:09;;;;;;;4.75;2.00;;;8.90;99.90;;;;;;5107907;28;20035;-78
2023/12/29 00:43:35;;;;;;;4.35;2.38;;;8.90;99.90;;;;;;5096400;28;20027;-81
2023/12/29 00:46:05;;;;;;;13.77;2.15;;;9.00;99.90;;;;;;5106947;28;20472;-78
2023/12/29 00:48:34;;;;;;;5.40;2.38;;;8.90;99.90;;;;;;5092165;28;20043;-83
2023/12/29 00:51:02;;;;;;;5.20;1.90;;;9.00;99.90;;;;;;5084013;28;20348;-80
2023/12/29 00:53:31;;;;;;;5.53;1.92;;;8.90;99.90;;;;;;5090125;28;20043;-80
2023/12/29 00:55:57;;;;;;;4.03;2.30;;;8.90;99.90;;;;;;5102598;28;20036;-81
2023/12/29 00:58:23;;;;;;;7.35;2.25;;;9.00;99.90;;;;;;5101481;28;20080;-80
2023/12/29 01:00:48;;;;;;;7.40;2.22;;;8.90;99.90;;;;;;5098129;28;20491;-79
2023/12/29 01:03:14;;;;;;;5.68;2.10;;;8.90;99.90;;;;;;5095689;28;20027;-81
2023/12/29 01:05:40;;;;;;;5.15;2.00;;;8.90;99.90;;;;;;5081101;28;20055;-85
2023/12/29 01:08:05;;;;;;;3.83;1.85;;;9.00;99.90;;;;;;5091719;28;20047;-81
2023/12/29 01:10:31;;;;;;;6.15;2.53;;;8.90;99.90;;;;;;5096039;28;20035;-80
2023/12/29 01:12:56;;;;;;;7.85;2.03;;;8.90;99.90;;;;;;5096254;28;20387;-81
2023/12/29 01:15:22;;;;;;;2.85;1.85;;;8.90;99.90;;;;;;5096315;28;20033;-81
2023/12/29 01:17:47;;;;;;;7.20;2.00;;;8.90;99.90;;;;;;5091755;28;20110;-79
2023/12/29 01:20:13;;;;;;;1.92;1.55;;;9.00;99.90;;;;;;5094608;28;20035;-81
2023/12/29 01:22:41;;;;;;;5.72;1.80;;;8.90;99.90;;;;;;5093636;28;20527;-82
2023/12/29 01:25:07;;;;;;;2.63;1.77;;;8.90;99.90;;;;;;5084896;28;20211;-80
2023/12/29 01:27:33;;;;;;;3.53;1.60;;;8.90;99.90;;;;;;5091894;28;20032;-78
2023/12/29 01:30:02;;;;;;;9.15;2.17;;;8.90;99.90;;;;;;5092944;28;20046;-81
2023/12/29 01:32:27;;;;;;;5.03;1.92;;;8.90;99.90;;;;;;5088866;28;20034;-81
2023/12/29 01:34:53;;;;;;;3.35;1.73;;;8.90;99.90;;;;;;5087564;28;20028;-80
2023/12/29 01:37:18;;;;;;;4.75;1.67;;;8.80;99.90;;;;;;5082466;28;20070;-78
2023/12/29 01:39:44;;;;;;;10.13;1.80;;;8.80;99.90;;;;;;5076430;28;20107;-80
2023/12/29 01:42:11;;;;;;;4.28;1.70;;;8.80;99.90;;;;;;5103643;28;20034;-80
2023/12/29 01:44:39;;;;;;;3.42;1.45;;;8.80;99.90;;;;;;5108392;27;20429;-80
2023/12/29 01:47:12;;;;;;;7.45;1.30;;;8.80;99.90;;;;;;5099953;28;20037;-80
2023/12/29 01:49:39;;;;;;;5.95;2.13;;;8.80;99.90;;;;;;5095607;28;20031;-82
2023/12/29 01:52:06;;;;;;;7.25;1.85;;;8.80;99.90;;;;;;5081596;28;20034;-80
2023/12/29 01:54:37;;;;;;;6.00;1.98;;;8.70;99.90;;;;;;5092831;28;20531;-79
2023/12/29 01:57:08;;;;;;;7.13;1.95;;;8.70;99.90;;;;;;5095574;28;20392;-85
2023/12/29 01:59:35;;;;;;;11.85;3.55;;;8.70;99.90;;;;;;5083194;28;20127;-78
2023/12/29 02:02:02;;;;;;;4.20;1.83;;;8.70;99.90;;;;;;5095413;28;20032;-78
2023/12/29 02:04:28;;;;;;;4.97;1.48;;;8.80;99.90;;;;;;5077788;28;20490;-81
2023/12/29 02:06:54;;;;;;;5.78;2.13;;;8.80;99.90;;;;;;5097476;28;20111;-80
2023/12/29 02:09:20;;;;;;;3.35;1.50;;;8.80;99.90;;;;;;5097062;28;20051;-81
2023/12/29 02:11:47;;;;;;;1.85;1.42;;;8.80;99.90;;;;;;5104841;28;20020;-79
2023/12/29 02:14:15;;;;;;;5.45;1.77;;;8.80;99.90;;;;;;5095107;28;20032;-79
2023/12/29 02:17:06;;;;;;;1.77;1.40;;;8.70;99.90;;;;;;5088172;28;20051;-83
2023/12/29 02:19:43;;;;;;;4.18;1.65;;;8.70;99.90;;;;;;5094366;28;20039;-80
2023/12/29 02:22:11;;;;;;;3.53;1.27;;;8.70;99.90;;;;;;5099478;28;20032;-78
2023/12/29 02:24:37;;;;;;;4.57;1.45;;;8.70;99.90;;;;;;5092600;28;20028;-82
2023/12/29 02:27:22;;;;;;;7.85;1.77;;;8.70;99.90;;;;;;5086069;28;20197;-80
2023/12/29 02:30:13;;;;;;;2.75;1.67;;;8.70;99.90;;;;;;5098409;28;20382;-81
2023/12/29 02:32:43;;;;;;;6.45;1.58;;;8.70;99.90;;;;;;5094081;28;20080;-87
2023/12/29 02:35:24;;;;;;;3.65;1.17;;;8.70;99.90;;;;;;5090930;28;20038;-85
2023/12/29 02:37:51;;;;;;;5.35;1.50;;;8.70;99.90;;;;;;5084147;28;20028;-81
2023/12/29 02:40:17;;;;;;;2.50;1.05;;;8.70;99.90;;;;;;5087243;28;20036;-81
2023/12/29 02:42:49;;;;;;;1.35;1.25;;;8.80;99.90;;;;;;5083810;28;20449;-79
2023/12/29 02:45:15;;;;;;;2.88;1.40;;;8.80;99.90;;;;;;5094035;28;20028;-83
2023/12/29 02:47:42;;;;;;;2.90;1.42;;;8.80;99.90;;;;;;5083711;28;20044;-80
2023/12/29 02:50:11;;;;;;;4.00;1.67;;;8.70;99.90;;;;;;5092298;27;20024;-83
2023/12/29 02:52:37;;;;;;;5.10;1.70;;;8.80;99.90;;;;;;5073560;28;20105;-83
2023/12/29 02:55:04;;;;;;;4.68;1.85;;;8.80;99.90;;;;;;5081450;28;20111;-81
2023/12/29 02:57:30;;;;;;;2.15;1.35;;;8.80;99.90;;;;;;5081252;28;20021;-86
2023/12/29 03:00:00;;;;;;;1.83;1.27;;;8.80;99.90;;;;;;5090881;28;20042;-80
2023/12/29 03:02:25;;;;;;;5.57;1.48;;;8.80;99.90;;;;;;5082626;28;20032;-78
2023/12/29 03:04:51;;;;;;;3.53;1.50;;;8.80;99.90;;;;;;5088161;28;20565;-79
2023/12/29 03:07:16;;;;;;;7.43;1.95;;;8.80;99.90;;;;;;5086553;28;20042;-79
2023/12/29 03:09:42;;;;;;;7.00;1.27;;;8.80;99.90;;;;;;5094989;28;20120;-79
2023/12/29 03:12:08;;;;;;;2.33;1.30;;;8.90;99.90;;;;;;5091399;28;20274;-81
2023/12/29 03:14:33;;;;;;;7.15;1.40;;;8.80;99.90;;;;;;5085458;28;20376;-79
2023/12/29 03:16:59;;;;;;;2.15;1.17;;;8.80;99.90;;;;;;5078636;28;20047;-78
2023/12/29 03:19:28;;;;;;;2.47;1.20;;;8.90;99.90;;;;;;5089384;28;20038;-86
2023/12/29 03:21:55;;;;;;;3.70;1.20;;;8.90;99.90;;;;;;5097668;28;20399;-83
2023/12/29 03:24:21;;;;;;;9.35;1.80;;;8.90;99.90;;;;;;5088478;28;20035;-81
2023/12/29 03:26:46;;;;;;;3.05;1.23;;;8.90;99.90;;;;;;5083000;28;20020;-81
2023/12/29 03:29:12;;;;;;;4.68;1.10;;;8.90;99.90;;;;;;5092135;28;20124;-79
2023/12/29 03:31:39;;;;;;;4.95;1.88;;;8.90;99.90;;;;;;5086148;28;20035;-83
2023/12/29 03:34:04;;;;;;;8.10;1.73;;;8.90;99.90;;;;;;5085204;28;20028;-83
2023/12/29 03:36:30;;;;;;;3.25;1.10;;;8.90;99.90;;;;;;5090850;28;20028;-81
2023/12/29 03:38:55;;;;;;;2.45;1.65;;;8.90;99.90;;;;;;5089636;28;20040;-80
2023/12/29 03:41:21;;;;;;;2.05;1.42;;;8.90;99.90;;;;;;5080677;28;20035;-80
2023/12/29 03:43:46;;;;;;;4.20;1.50;;;8.90;99.90;;;;;;5085150;28;20039;-81
2023/12/29 03:46:19;;;;;;;4.00;1.63;;;8.90;99.90;;;;;;5085086;28;20032;-79
2023/12/29 03:48:45;;;;;;;4.38;1.38;;;8.90;99.90;;;;;;5087933;28;20112;-80
2023/12/29 03:51:11;;;;;;;2.53;1.23;;;9.00;99.90;;;;;;5080063;28;20491;-83
2023/12/29 03:53:37;;;;;;;8.55;2.13;;;9.00;99.90;;;;;;5089870;28;20115;-82
2023/12/29 03:56:07;;;;;;;6.00;1.75;;;9.00;99.90;;;;;;5097701;28;20487;-79
2023/12/29 03:58:35;;;;;;;3.70;1.40;;;8.90;99.90;;;;;;5084671;28;20036;-83
2023/12/29 04:01:01;;;;;;;8.68;1.58;;;9.00;99.90;;;;;;5079835;28;20107;-79
2023/12/29 04:03:27;;;;;;;3.67;1.60;;;9.00;99.90;;;;;;5092581;28;20031;-79
2023/12/29 04:05:53;;;;;;;7.28;1.88;;;9.10;99.90;;;;;;5086420;28;20044;-80
2023/12/29 04:08:18;;;;;;;5.45;1.48;;;9.10;99.90;;;;;;5089727;28;20138;-79
2023/12/29 04:10:44;;;;;;;3.63;1.30;;;9.10;99.90;;;;;;5091677;28;20390;-78
2023/12/29 04:13:09;;;;;;;8.10;1.88;;;9.10;99.90;;;;;;5082496;28;20032;-79
2023/12/29 04:15:35;;;;;;;3.42;1.35;;;9.20;99.90;;;;;;5082655;28;20024;-80
2023/12/29 04:18:00;;;;;;;6.78;1.52;;;9.10;99.90;;;;;;5089390;28;20020;-80
2023/12/29 04:20:26;;;;;;;2.35;1.38;;;9.10;99.90;;;;;;5088031;28;20023;-79
2023/12/29 04:22:52;;;;;;;5.68;1.85;;;9.10;99.90;;;;;;5090680;28;20026;-79
2023/12/29 04:25:18;;;;;;;3.78;1.85;;;9.10;99.90;;;;;;5082272;28;20028;-80
2023/12/29 04:27:43;;;;;;;3.45;1.65;;;9.10;99.90;;;;;;5083830;28;20047;-79
2023/12/29 04:30:09;;;;;;;3.30;1.38;;;9.10;99.90;;;;;;5080415;28;20036;-80
2023/12/29 04:32:35;;;;;;;3.38;1.50;;;9.20;99.90;;;;;;5079614;28;20030;-79
2023/12/29 04:35:01;;;;;;;6.90;1.77;;;9.20;99.90;;;;;;5084204;28;20115;-79
2023/12/29 04:37:26;;;;;;;1.23;1.10;;;9.10;99.90;;;;;;5088047;28;20024;-80
2023/12/29 04:39:52;;;;;;;3.88;1.23;;;9.10;99.90;;;;;;5084571;28;20617;-79
2023/12/29 04:42:18;;;;;;;6.80;1.42;;;9.10;99.90;;;;;;5084723;28;20031;-80
2023/12/29 04:44:44;;;;;;;3.05;1.65;;;9.10;99.90;;;;;;5077351;28;20057;-79
2023/12/29 04:47:09;;;;;;;4.82;1.90;;;9.20;99.90;;;;;;5079545;28;20028;-79
2023/12/29 04:49:35;;;;;;;6.90;1.80;;;9.10;99.90;;;;;;5091261;28;20496;-80
2023/12/29 04:52:01;;;;;;;5.55;1.80;;;9.10;99.90;;;;;;5093309;28;20044;-78
2023/12/29 04:54:27;;;;;;;3.97;1.80;;;9.10;99.90;;;;;;5087638;28;20043;-78
2023/12/29 04:56:52;;;;;;;8.27;1.73;;;9.10;99.90;;;;;;5093522;28;20352;-79
2023/12/29 04:59:19;;;;;;;3.65;1.65;;;9.10;99.90;;;;;;5088763;28;20468;-80
2023/12/29 05:01:45;;;;;;;5.30;2.08;;;9.10;99.90;;;;;;5090284;28;20024;-85
2023/12/29 05:04:14;;;;;;;6.45;1.70;;;9.20;99.90;;;;;;5080160;28;20021;-84
2023/12/29 05:06:40;;;;;;;6.65;1.80;;;9.20;99.90;;;;;;5088653;28;20032;-82
2023/12/29 05:09:05;;;;;;;7.30;1.73;;;9.20;99.90;;;;;;5086025;28;20516;-83
2023/12/29 05:11:32;;;;;;;15.57;2.00;;;9.20;99.90;;;;;;5092519;28;20269;-79
2023/12/29 05:13:57;;;;;;;7.07;1.73;;;9.20;99.90;;;;;;5082639;28;20028;-81
2023/12/29 05:16:23;;;;;;;7.50;2.10;;;9.10;99.90;;;;;;5093138;28;20498;-80
2023/12/29 05:18:49;;;;;;;8.73;2.15;;;9.10;99.90;;;;;;5092166;28;20036;-85
2023/12/29 05:21:18;;;;;;;2.65;1.70;;;9.00;99.90;;;;;;5088012;28;20032;-80
2023/12/29 05:23:45;;;;;;;6.20;2.25;;;9.00;99.90;;;;;;5085514;28;20135;-80
2023/12/29 05:26:11;;;;;;;4.53;1.67;;;9.00;99.90;;;;;;5085927;28;20242;-78
2023/12/29 05:28:37;;;;;;;5.53;2.03;;;8.90;99.90;;;;;;5084414;28;20039;-81
2023/12/29 05:31:05;;;;;;;10.50;2.13;;;8.90;99.90;;;;;;5093311;28;20042;-80
2023/12/29 05:33:32;;;;;;;11.38;1.98;;;8.90;99.90;;;;;;5087683;28;20071;-79
2023/12/29 05:35:58;;;;;;;6.82;2.00;;;8.90;99.90;;;;;;5090498;28;20468;-80
2023/12/29 05:38:24;;;;;;;6.57;1.80;;;8.90;99.90;;;;;;5098484;28;20031;-82
2023/12/29 05:40:50;;;;;;;7.15;2.00;;;8.90;99.90;;;;;;5087168;28;20467;-83
2023/12/29 05:43:16;;;;;;;6.07;2.05;;;8.90;99.90;;;;;;5092389;28;20111;-83
2023/12/29 05:45:41;;;;;;;7.20;1.73;;;8.80;99.90;;;;;;5087795;28;20177;-79
2023/12/29 05:48:07;;;;;;;5.05;1.67;;;8.80;99.90;;;;;;5087271;28;20506;-80
2023/12/29 05:50:33;;;;;;;3.28;2.17;;;8.80;99.90;;;;;;5091538;28;20069;-80
2023/12/29 05:53:02;;;;;;;4.53;2.05;;;8.80;99.90;;;;;;5096599;28;20028;-84
2023/12/29 05:55:27;;;;;;;7.15;1.92;;;8.90;99.90;;;;;;5087884;28;20035;-82
2023/12/29 05:57:53;;;;;;;4.40;1.90;;;8.90;99.90;;;;;;5090004;28;20475;-79
2023/12/29 06:00:18;;;;;;;4.40;1.70;;;8.90;99.90;;;;;;5086049;28;20265;-82
2023/12/29 06:02:45;;;;;;;5.50;1.67;;;8.90;99.90;;;;;;5086484;28;20028;-84
2023/12/29 06:05:12;;;;;;;4.75;1.95;;;8.90;99.90;;;;;;5089594;28;20491;-79
2023/12/29 06:07:37;;;;;;;10.23;2.17;;;8.90;99.90;;;;;;5087296;28;20051;-79
2023/12/29 06:10:05;;;;;;;6.28;2.00;;;8.90;99.90;;;;;;5081704;28;20379;-80
2023/12/29 06:12:30;;;;;;;8.25;2.40;;;8.80;99.90;;;;;;5079992;28;20437;-81
2023/12/29 06:14:56;;;;;;;11.32;1.88;;;8.80;99.90;;;;;;5078032;28;20011;-79
2023/12/29 06:17:21;;;;;;;6.25;2.42;;;8.90;99.90;;;;;;5079955;28;20024;-80
2023/12/29 06:19:47;;;;;;;6.63;2.63;;;8.80;99.90;;;;;;5082700;28;20424;-80
2023/12/29 06:22:14;;;;;;;7.13;2.03;;;8.80;99.90;;;;;;5082809;28;20028;-80
2023/12/29 06:24:42;;;;;;;10.85;1.98;;;8.80;99.90;;;;;;5082758;28;20028;-80
2023/12/29 06:27:13;;;;;;;7.32;1.75;;;8.80;99.90;;;;;;5093452;28;20019;-81
2023/12/29 06:29:41;;;;;;;14.55;2.47;;;8.80;99.90;;;;;;5085790;28;20093;-81
2023/12/29 06:32:06;;;;;;;10.55;2.65;;;8.90;99.90;;;;;;5080019;28;20024;-80
2023/12/29 06:34:32;;;;;;;7.10;2.30;;;8.90;99.90;;;;;;5076994;28;20472;-80
2023/12/29 06:36:59;;;;;;;5.70;2.15;;;8.80;99.90;;;;;;5096376;27;20024;-83
2023/12/29 06:39:24;;;;;;;5.40;2.28;;;8.80;99.90;;;;;;5093245;28;20487;-79
2023/12/29 06:41:50;;;;;;;7.78;2.45;;;8.80;99.90;;;;;;5083048;28;20023;-81
2023/12/29 06:44:15;;;;;;;6.85;2.25;;;8.80;99.90;;;;;;5085617;28;20082;-82
2023/12/29 06:46:41;;;;;;;8.65;2.50;;;8.80;99.90;;;;;;5082930;28;20026;-79
2023/12/29 06:49:08;;;;;;;9.15;2.70;;;8.90;99.90;;;;;;5074945;28;20515;-81
2023/12/29 06:51:35;;;;;;;9.73;2.10;;;8.90;99.90;;;;;;5069867;28;20052;-79
2023/12/29 06:54:01;;;;;;;6.90;2.38;;;8.90;99.90;;;;;;5093708;28;20154;-78
2023/12/29 06:56:26;;;;;;;5.40;2.20;;;8.90;99.90;;;;;;5092545;28;20122;-78
2023/12/29 06:58:52;;;;;;;5.95;2.05;;;9.00;99.90;;;;;;5091828;28;20062;-79
2023/12/29 07:01:17;;;;;;;7.63;2.00;;;9.00;99.90;;;;;;5085226;28;20066;-81
2023/12/29 07:03:43;;;;;;;4.65;1.70;;;9.10;99.90;;;;;;5085145;28;20030;-83
2023/12/29 07:06:10;;;;;;;13.15;2.20;;;9.20;99.90;;;;;;5086683;28;20036;-80
2023/12/29 07:08:36;;;;;;;12.02;1.85;;;9.20;99.90;;;;;;5088030;28;20044;-81
2023/12/29 07:11:01;;;;;;;6.00;1.73;;;9.20;99.90;;;;;;5097542;27;20110;-80
2023/12/29 07:13:27;;;;;;;10.18;2.35;;;9.20;99.90;;;;;;5096931;28;20039;-86
2023/12/29 07:15:54;;;;;;;7.35;1.83;;;9.20;99.90;;;;;;5080055;28;20081;-82
2023/12/29 07:18:19;;;;;;;9.90;1.70;;;9.20;99.90;;;;;;5083796;28;20018;-83
2023/12/29 07:20:45;;;;;;;6.85;1.98;;;9.20;99.90;;;;;;5077423;28;20024;-82
2023/12/29 07:23:10;;;;;;;8.52;1.85;;;9.30;99.90;;;;;;5083900;28;20031;-79
2023/12/29 07:25:36;;;;;;;6.53;1.77;;;9.30;99.90;;;;;;5082205;28;20035;-78
2023/12/29 07:28:02;;;;;;;11.63;1.73;;;9.30;99.90;;;;;;5084078;28;20048;-85
2023/12/29 07:30:27;;;;;;;11.85;3.72;;;9.30;99.90;;;;;;5097204;28;20039;-79
2023/12/29 07:32:53;;;;;;;14.70;1.92;;;9.40;99.90;;;;;;5083273;28;20032;-80
2023/12/29 07:35:19;;;;;;;8.95;1.98;;;9.30;99.90;;;;;;5084193;28;20158;-84
2023/12/29 07:37:45;;;;;;;13.90;1.73;;;9.30;99.90;;;;;;5076767;28;20387;-82
2023/12/29 07:40:11;;;;;;;6.40;2.08;;;9.30;99.90;;;;;;5077801;28;20032;-79
2023/12/29 07:42:44;;;;;;;7.25;2.15;;;9.30;99.90;;;;;;5079929;28;20020;-79
2023/12/29 07:45:10;;;;;;;4.32;1.50;;;9.30;99.90;;;;;;5082591;28;20468;-88
2023/12/29 07:47:36;;;;;;;5.70;1.50;;;9.30;99.90;;;;;;5075428;28;20086;-84
2023/12/29 07:50:02;;;;;;;9.07;2.03;;;9.30;99.90;;;;;;5080521;28;20028;-83
2023/12/29 07:52:28;;;;;;;5.65;1.58;;;9.40;99.90;;;;;;5074187;28;20043;-82
2023/12/29 07:54:53;;;;;;;4.03;1.63;;;9.40;99.90;;;;;;5089150;28;20027;-80
2023/12/29 07:57:19;;;;;;;5.68;1.70;;;9.50;99.90;;;;;;5089653;28;20032;-83
2023/12/29 07:59:44;;;;;;;9.00;1.48;;;9.50;99.90;;;;;;5090084;28;20099;-78
2023/12/29 08:02:10;;;;;;;7.28;1.33;;;9.50;99.90;;;;;;5083896;28;20035;-79
2023/12/29 08:04:35;;;;;;;5.80;1.70;;;9.60;99.90;;;;;;5082503;28;20040;-85
2023/12/29 08:07:01;;;;;;;7.80;1.80;;;9.60;99.90;;;;;;5078629;28;20056;-80
2023/12/29 08:09:27;;;;;;;4.80;1.67;;;9.60;99.90;;;;;;5084763;28;20043;-85
2023/12/29 08:11:53;;;;;;;5.68;2.05;;;9.60;99.90;;;;;;5077623;28;20032;-78
2023/12/29 08:14:20;;;;;;;11.25;1.88;;;9.60;99.90;;;;;;5081265;28;20108;-83
2023/12/29 08:16:46;;;;;;;10.57;1.83;;;9.50;99.90;;;;;;5082613;28;20021;-77
2023/12/29 08:19:12;;;;;;;6.10;1.52;;;9.50;99.90;;;;;;5077924;28;20100;-78
2023/12/29 08:21:37;;;;;;;4.72;1.67;;;9.60;99.90;;;;;;5091200;28;20051;-84
2023/12/29 08:24:04;;;;;;;19.55;2.78;;;9.60;99.90;;;;;;5070518;28;20362;-82
2023/12/29 08:26:30;;;;;;;6.45;1.95;;;9.60;99.90;;;;;;5079545;28;21603;-79
2023/12/29 08:28:55;;;;;;;7.82;2.05;;;9.60;99.90;;;;;;5083098;28;20052;-80
2023/12/29 08:31:22;;;;;;;5.90;2.03;;;9.60;99.90;;;;;;5093836;28;20032;-79
2023/12/29 08:33:48;;;;;;;4.68;1.27;;;9.60;99.90;;;;;;5076898;28;20028;-77
2023/12/29 08:36:18;;;;;;;4.97;1.50;;;9.70;99.90;;;;;;5084678;28;20035;-77
2023/12/29 08:38:44;;;;;;;5.15;1.38;;;9.70;99.90;;;;;;5080648;28;20020;-84
2023/12/29 08:41:09;;;;;;;4.00;1.63;;;9.70;99.90;;;;;;5085777;28;20486;-79
2023/12/29 08:43:38;;;;;;;4.13;1.30;;;9.70;99.90;;;;;;5084054;28;20077;-81
2023/12/29 08:46:05;;;;;;;3.75;1.52;;;9.70;99.90;;;;;;5085163;28;20088;-81
2023/12/29 08:48:31;;;;;;;11.20;1.67;;;9.80;99.90;;;;;;5089161;28;20063;-82
2023/12/29 08:50:59;;;;;;;4.85;1.42;;;9.70;99.90;;;;;;5084753;28;20048;-80
2023/12/29 08:53:25;;;;;;;9.57;3.22;;;9.80;99.90;;;;;;5085687;28;20429;-80
2023/12/29 08:55:51;;;;;;;6.85;1.55;;;9.80;99.90;;;;;;5080034;28;20024;-80
2023/12/29 08:58:16;;;;;;;9.50;1.80;;;9.80;99.90;;;;;;5089348;28;20031;-78
2023/12/29 09:00:42;;;;;;;7.82;1.70;;;9.80;99.90;;;;;;5097004;28;20483;-80
2023/12/29 09:03:08;;;;;;;7.57;1.80;;;9.80;99.90;;;;;;5089817;28;20028;-87
2023/12/29 09:05:33;;;;;;;5.40;1.55;;;9.80;99.90;;;;;;5098828;28;20024;-82
2023/12/29 09:07:59;;;;;;;4.85;1.98;;;9.80;99.90;;;;;;5079289;28;20052;-82
2023/12/29 09:10:24;;;;;;;9.57;3.35;;;9.80;99.90;;;;;;5089576;28;20054;-80
2023/12/29 09:12:50;;;;;;;5.05;2.22;;;9.90;99.90;;;;;;5105136;28;20024;-81
2023/12/29 09:15:16;;;;;;;10.75;2.83;;;9.80;99.90;;;;;;5092905;28;20122;-81
2023/12/29 09:17:42;;;;;;;7.00;2.85;;;9.80;99.90;;;;;;5086631;28;20033;-80
2023/12/29 09:20:09;;;;;;;8.30;2.05;;;9.80;99.90;;;;;;5092496;28;20114;-80
2023/12/29 09:22:35;;;;;;;9.40;2.45;;;9.80;99.90;;;;;;5087095;28;20032;-82
2023/12/29 09:25:01;;;;;;;9.55;2.20;;;9.90;99.90;;;;;;5105068;28;20110;-79
2023/12/29 09:27:26;;;;;;;3.85;1.75;;;9.90;99.90;;;;;;5090526;28;20250;-83
2023/12/29 09:29:52;;;;;;;6.00;1.90;;;9.90;99.90;;;;;;5093905;28;20027;-83
2023/12/29 09:32:17;;;;;;;6.68;1.52;;;10.00;99.90;;;;;;5090476;28;20047;-79
2023/12/29 09:34:43;;;;;;;8.05;1.60;;;10.00;99.90;;;;;;5093113;28;20464;-80
2023/12/29 09:37:09;;;;;;;11.65;2.38;;;10.00;99.90;;;;;;5090497;28;20043;-78
2023/12/29 09:39:34;;;;;;;9.43;1.58;;;10.00;99.90;;;;;;5084992;28;20031;-85
2023/12/29 09:42:03;;;;;;;8.85;1.73;;;10.00;99.90;;;;;;5105486;28;20023;-80
2023/12/29 09:44:31;;;;;;;6.68;1.38;;;10.10;99.90;;;;;;5085228;28;20024;-81
2023/12/29 09:47:03;;;;;;;6.82;1.52;;;10.10;99.90;;;;;;5092309;28;20047;-80
2023/12/29 09:49:47;;;;;;;9.52;2.15;;;10.10;99.90;;;;;;5086714;28;20068;-79
2023/12/29 09:52:15;;;;;;;9.98;2.28;;;10.10;99.90;;;;;;5085191;28;20480;-83
2023/12/29 09:54:42;;;;;;;7.15;2.08;;;10.00;99.90;;;;;;5078272;28;20056;-78
2023/12/29 09:57:08;;;;;;;13.50;2.30;;;10.00;99.90;;;;;;5083848;28;20381;-82
2023/12/29 09:59:40;;;;;;;8.30;2.15;;;10.00;99.90;;;;;;5102037;28;20119;-84
2023/12/29 10:02:18;;;;;;;8.88;1.85;;;10.00;99.90;;;;;;5087098;28;20047;-84
2023/12/29 10:04:44;;;;;;;7.32;1.88;;;10.00;99.90;;;;;;5081564;28;20028;-78
2023/12/29 10:07:18;;;;;;;8.05;1.48;;;10.00;99.90;;;;;;5084173;28;20107;-79
2023/12/29 10:09:45;;;;;;;11.88;1.98;;;10.10;99.90;;;;;;5094035;28;20044;-79
2023/12/29 10:12:12;;;;;;;5.60;1.55;;;10.00;99.90;;;;;;5090706;28;20123;-78
2023/12/29 10:15:09;;;;;;;6.70;1.58;;;10.10;99.90;;;;;;5095246;28;20020;-79
2023/12/29 10:17:56;;;;;;;5.07;1.80;;;10.10;99.90;;;;;;5082716;28;20036;-86
2023/12/29 10:20:46;;;;;;;6.30;1.63;;;10.20;99.90;;;;;;5086329;28;20024;-82
2023/12/29 10:23:47;;;;;;;6.07;1.98;;;10.20;99.90;;;;;;5074613;28;20024;-82
2023/12/29 10:26:15;;;;;;;5.03;1.45;;;10.10;99.90;;;;;;5083436;28;20035;-78
2023/12/29 10:28:40;;;;;;;6.63;1.40;;;10.10;99.90;;;;;;5083958;28;20075;-78
2023/12/29 10:31:07;;;;;;;8.98;1.40;;;10.10;99.90;;;;;;5076682;28;20085;-85
2023/12/29 10:33:33;;;;;;;4.28;1.30;;;10.10;99.90;;;;;;5083469;28;20516;-83
2023/12/29 10:36:06;;;;;;;8.15;1.63;;;10.10;99.90;;;;;;5084854;28;20039;-83
2023/12/29 10:38:32;;;;;;;5.70;1.50;;;10.10;99.90;;;;;;5083752;28;20376;-79
2023/12/29 10:41:16;;;;;;;6.00;1.70;;;10.10;99.90;;;;;;5088693;28;20020;-78
2023/12/29 10:43:43;;;;;;;10.73;1.98;;;10.10;99.90;;;;;;5074622;28;20057;-78
2023/12/29 10:46:11;;;;;;;6.88;2.00;;;10.00;99.90;;;;;;5071953;28;20365;-84
2023/12/29 10:48:38;;;;;;;5.47;2.13;;;10.10;99.90;;;;;;5085702;28;20035;-80
2023/12/29 10:51:06;;;;;;;4.22;1.30;;;10.10;99.90;;;;;;5075827;28;20104;-84
2023/12/29 10:53:35;;;;;;;6.68;1.67;;;10.10;99.90;;;;;;5088133;28;20126;-82
2023/12/29 10:56:01;;;;;;;9.43;1.75;;;10.10;99.90;;;;;;5076676;28;20028;-82
2023/12/29 10:58:29;;;;;;;8.27;1.63;;;10.20;99.90;;;;;;5100802;28;20517;-79
2023/12/29 11:00:59;;;;;;;7.57;1.98;;;10.10;99.90;;;;;;5088263;28;20404;-79
2023/12/29 11:03:25;;;;;;;7.88;1.70;;;10.20;99.90;;;;;;5073082;28;20569;-78
2023/12/29 11:06:01;;;;;;;5.00;1.52;;;10.20;99.90;;;;;;5077011;28;20116;-83
2023/12/29 11:08:27;;;;;;;7.82;1.75;;;10.20;99.90;;;;;;5082727;28;20054;-80
2023/12/29 11:10:56;;;;;;;4.93;1.48;;;10.20;99.90;;;;;;5079989;28;20032;-83
2023/12/29 11:13:22;;;;;;;3.95;1.10;;;10.20;99.90;;;;;;5071998;28;20043;-80
2023/12/29 11:15:48;;;;;;;4.72;1.30;;;10.20;99.90;;;;;;5074951;28;20036;-82
2023/12/29 11:18:17;;;;;;;2.17;1.30;;;10.20;99.90;;;;;;5088446;28;20529;-78
2023/12/29 11:20:45;;;;;;;3.70;1.42;;;10.20;99.90;;;;;;5085220;28;20073;-81
2023/12/29 11:23:14;;;;;;;3.47;1.42;;;10.20;99.90;;;;;;5082896;28;20106;-79
2023/12/29 11:25:41;;;;;;;2.05;1.10;;;10.20;99.90;;;;;;5088202;28;20023;-80
2023/12/29 11:28:11;;;;;;;3.67;1.35;;;10.10;99.90;;;;;;5077749;28;20036;-79
2023/12/29 11:30:39;;;;;;;4.63;1.20;;;10.10;99.90;;;;;;5091521;28;20088;-82
2023/12/29 11:33:20;;;;;;;2.53;1.33;;;10.10;99.90;;;;;;5087935;28;20035;-79
2023/12/29 11:36:06;;;;;;;3.22;1.40;;;10.10;99.90;;;;;;5077975;28;20028;-78
2023/12/29 11:38:47;;;;;;;5.95;1.40;;;10.10;99.90;;;;;;5086110;28;20483;-80
2023/12/29 11:41:21;;;;;;;10.20;1.58;;;10.10;99.90;;;;;;5099244;28;20659;-79
2023/12/29 11:43:57;;;;;;;3.78;1.30;;;10.10;99.90;;;;;;5084991;28;20036;-79
2023/12/29 11:46:41;;;;;;;3.10;1.23;;;10.10;99.90;;;;;;5093532;28;20023;-78
2023/12/29 11:49:07;;;;;;;4.05;1.17;;;10.10;99.90;;;;;;5081844;28;20064;-79
2023/12/29 11:51:39;;;;;;;3.63;1.83;;;10.10;99.90;;;;;;5090096;28;20059;-78
2023/12/29 11:54:10;;;;;;;1.67;1.50;;;10.10;99.90;;;;;;5085796;28;20060;-83
2023/12/29 11:56:35;;;;;;;3.83;1.13;;;10.00;99.90;;;;;;5075504;28;20066;-80
2023/12/29 11:59:24;;;;;;;4.68;1.50;;;10.00;99.90;;;;;;5078273;28;20052;-79
2023/12/29 12:01:55;;;;;;;1.67;1.20;;;9.90;99.90;;;;;;5084207;28;20032;-82
2023/12/29 12:04:43;;;;;;;3.75;1.05;;;9.90;99.90;;;;;;5082443;28;20158;-81
2023/12/29 12:07:40;;;;;;;3.42;1.13;;;9.90;99.90;;;;;;5093381;28;20028;-89
2023/12/29 12:10:23;;;;;;;1.00;0.90;;;9.90;99.90;;;;;;5088555;28;20032;-80
2023/12/29 12:12:51;;;;;;;3.33;1.60;;;9.80;99.90;;;;;;5090118;28;20040;-78
2023/12/29 12:15:31;;;;;;;1.55;0.90;;;9.90;99.90;;;;;;5092762;28;20249;-79
2023/12/29 12:17:58;;;;;;;4.55;1.05;;;9.90;99.90;;;;;;5086661;28;20035;-82
2023/12/29 12:20:25;;;;;;;4.70;2.45;;;9.90;99.90;;;;;;5078836;28;20050;-85
2023/12/29 12:23:02;;;;;;;1.73;1.00;;;9.90;99.90;;;;;;5086772;28;20024;-82
2023/12/29 12:25:30;;;;;;;3.83;2.47;;;10.00;99.90;;;;;;5088895;28;20024;-81
2023/12/29 12:27:56;;;;;;;6.53;0.70;;;10.00;99.90;;;;;;5092552;28;20040;-78
2023/12/29 12:30:22;;;;;;;1.50;0.95;;;10.00;99.90;;;;;;5094019;28;20538;-80
2023/12/29 12:33:03;;;;;;;5.63;1.10;;;10.10;99.90;;;;;;5087564;28;20547;-84
2023/12/29 12:35:29;;;;;;;1.02;0.90;;;10.10;99.90;;;;;;5089897;28;20514;-80
2023/12/29 12:38:12;;;;;;;1.13;0.90;;;10.10;99.90;;;;;;5097897;28;20032;-79
2023/12/29 12:40:38;;;;;;;1.25;0.80;;;10.10;99.90;;;;;;5084680;28;20553;-80
2023/12/29 12:43:07;;;;;;;0.95;0.70;;;10.10;99.90;;;;;;5091706;28;20123;-84
2023/12/29 12:45:47;;;;;;;1.38;0.70;;;10.10;99.90;;;;;;5089557;28;20024;-79
2023/12/29 12:48:21;;;;;;;1.25;1.10;;;10.10;99.90;;;;;;5100718;28;20127;-79
2023/12/29 12:50:47;;;;;;;3.92;0.90;;;10.10;99.90;;;;;;5081027;28;20113;-79
2023/12/29 12:53:19;;;;;;;1.67;1.08;;;10.10;99.90;;;;;;5089483;28;20047;-80
2023/12/29 12:55:50;;;;;;;1.33;1.00;;;10.10;99.90;;;;;;5089803;28;20028;-83
2023/12/29 12:58:38;;;;;;;1.95;1.00;;;10.00;99.90;;;;;;5085155;28;20032;-79